Time;durP1;ratioP1;P1;durP2;ratioP2;P2;SDS_P1;SDS_P2;PMS_P1;PMS_P2;Temp;Humidity;BMP_temperature;BMP_pressure;BME280_temperature;BME280_humidity;BME280_pressure;Samples;Min_cycle;Max_cycle;Signal;HPM_P1;HPM_P2
2021/08/04 00:01:20;;;;;;;7.20;7.00;;;24.00;95.30;;;;;;3544947;40;20474;-59
2021/08/04 00:03:47;;;;;;;7.50;7.30;;;24.00;95.30;;;;;;3543313;40;20751;-58
2021/08/04 00:06:14;;;;;;;7.40;7.20;;;24.00;95.30;;;;;;3543461;40;20618;-59
2021/08/04 00:08:42;;;;;;;7.33;7.13;;;24.00;95.30;;;;;;3538088;40;20574;-58
2021/08/04 00:11:09;;;;;;;7.40;7.20;;;24.00;95.30;;;;;;3535488;40;20502;-59
2021/08/04 00:13:38;;;;;;;8.00;7.70;;;24.00;95.30;;;;;;3535466;40;21044;-60
2021/08/04 00:16:06;;;;;;;8.00;7.70;;;24.00;95.30;;;;;;3533323;40;20740;-59
2021/08/04 00:18:33;;;;;;;7.77;7.57;;;24.00;95.30;;;;;;3535234;40;20530;-59
2021/08/04 00:21:01;;;;;;;7.60;7.40;;;24.00;95.30;;;;;;3534845;40;20465;-60
2021/08/04 00:23:28;;;;;;;8.10;7.80;;;24.00;95.30;;;;;;3533873;40;20462;-59
2021/08/04 00:25:56;;;;;;;7.40;7.20;;;24.00;95.30;;;;;;3535170;40;20486;-58
2021/08/04 00:28:30;;;;;;;7.97;7.67;;;24.00;95.30;;;;;;3533853;40;20883;-58
2021/08/04 00:31:05;;;;;;;7.60;7.40;;;24.00;95.30;;;;;;3535240;40;20791;-59
2021/08/04 00:33:32;;;;;;;8.00;7.80;;;24.00;95.30;;;;;;3534125;40;20611;-58
2021/08/04 00:36:00;;;;;;;6.90;6.70;;;24.00;95.30;;;;;;3534719;40;20463;-58
2021/08/04 00:38:28;;;;;;;7.20;7.00;;;24.00;95.30;;;;;;3534850;40;20459;-60
2021/08/04 00:40:56;;;;;;;7.40;7.20;;;24.00;95.30;;;;;;3524981;40;20479;-60
2021/08/04 00:43:24;;;;;;;7.73;7.53;;;24.00;95.30;;;;;;3532450;40;20537;-59
2021/08/04 00:45:51;;;;;;;7.30;7.10;;;24.00;95.30;;;;;;3534309;40;20813;-60
2021/08/04 00:48:20;;;;;;;7.63;7.43;;;24.00;95.30;;;;;;3525970;40;20457;-60
2021/08/04 00:50:48;;;;;;;7.93;7.63;;;24.00;95.30;;;;;;3533643;40;20450;-59
2021/08/04 00:53:21;;;;;;;7.30;7.10;;;24.00;95.30;;;;;;3533705;40;20455;-59
2021/08/04 00:55:49;;;;;;;7.23;7.03;;;24.00;95.30;;;;;;3533899;40;20470;-60
2021/08/04 00:58:18;;;;;;;7.20;7.00;;;24.00;95.30;;;;;;3534579;40;20473;-60
2021/08/04 01:00:53;;;;;;;7.63;7.43;;;24.00;95.30;;;;;;3525217;40;20474;-60
2021/08/04 01:03:23;;;;;;;7.33;7.13;;;24.00;95.30;;;;;;3534025;40;20680;-60
2021/08/04 01:05:56;;;;;;;8.03;7.73;;;24.00;95.30;;;;;;3525658;40;20479;-60
2021/08/04 01:08:30;;;;;;;7.60;7.40;;;24.00;95.30;;;;;;3533628;40;20490;-60
2021/08/04 01:11:03;;;;;;;7.20;7.00;;;24.00;95.30;;;;;;3536786;40;20860;-59
2021/08/04 01:13:37;;;;;;;7.43;7.23;;;24.00;95.30;;;;;;3537349;40;20470;-59
2021/08/04 01:16:10;;;;;;;7.60;7.40;;;24.00;95.30;;;;;;3527042;40;20466;-58
2021/08/04 01:18:42;;;;;;;7.93;7.70;;;24.00;95.30;;;;;;3536015;40;20705;-59
2021/08/04 01:21:12;;;;;;;7.50;7.30;;;24.00;95.30;;;;;;3534894;40;20500;-59
2021/08/04 01:23:48;;;;;;;7.43;7.23;;;24.00;95.30;;;;;;3535739;40;20778;-60
2021/08/04 01:26:29;;;;;;;7.30;7.10;;;24.00;95.30;;;;;;3527209;40;20454;-58
2021/08/04 01:29:00;;;;;;;7.40;7.20;;;24.00;95.30;;;;;;3534910;40;20462;-59
2021/08/04 01:31:30;;;;;;;7.30;7.10;;;24.00;95.30;;;;;;3535747;40;20455;-59
2021/08/04 01:34:00;;;;;;;7.20;6.90;;;24.00;95.30;;;;;;3527742;40;20493;-60
2021/08/04 01:36:27;;;;;;;7.10;6.90;;;24.00;95.30;;;;;;3536237;40;20478;-60
2021/08/04 01:38:56;;;;;;;7.30;7.10;;;24.00;95.30;;;;;;3536540;40;20471;-59
2021/08/04 01:41:26;;;;;;;7.50;7.30;;;24.00;95.30;;;;;;3536520;40;20810;-60
2021/08/04 01:43:55;;;;;;;7.50;7.30;;;24.00;95.30;;;;;;3534656;40;20472;-56
2021/08/04 01:46:23;;;;;;;8.00;7.70;;;24.00;95.30;;;;;;3535294;40;20489;-60
2021/08/04 01:48:52;;;;;;;7.87;7.63;;;24.00;95.30;;;;;;3536232;40;20541;-58
2021/08/04 01:51:20;;;;;;;7.67;7.47;;;24.00;95.30;;;;;;3535064;40;20681;-60
2021/08/04 01:53:48;;;;;;;7.57;7.37;;;24.00;95.30;;;;;;3534803;40;20713;-59
2021/08/04 01:56:15;;;;;;;7.63;7.43;;;24.00;95.30;;;;;;3535028;40;20478;-59
2021/08/04 01:58:45;;;;;;;8.00;7.80;;;24.00;95.30;;;;;;3526041;40;20471;-60
2021/08/04 02:01:13;;;;;;;7.63;7.43;;;24.00;95.30;;;;;;3526309;40;20716;-60
2021/08/04 02:03:40;;;;;;;7.70;7.50;;;24.00;95.30;;;;;;3527322;40;20738;-57
2021/08/04 02:06:14;;;;;;;7.83;7.53;;;24.00;95.30;;;;;;3536773;40;20471;-60
2021/08/04 02:08:52;;;;;;;7.80;7.60;;;24.00;95.30;;;;;;3538700;40;20487;-59
2021/08/04 02:11:25;;;;;;;7.90;7.70;;;24.00;95.30;;;;;;3534998;40;20465;-58
2021/08/04 02:14:00;;;;;;;8.13;7.83;;;24.00;95.30;;;;;;3532810;40;20463;-60
2021/08/04 02:16:32;;;;;;;7.53;7.33;;;24.00;95.30;;;;;;3534358;40;20543;-60
2021/08/04 02:19:10;;;;;;;8.07;7.80;;;24.00;95.30;;;;;;3533056;40;20450;-60
2021/08/04 02:21:41;;;;;;;8.37;8.07;;;24.00;95.30;;;;;;3526031;40;20490;-59
2021/08/04 02:24:10;;;;;;;8.00;7.80;;;24.00;95.30;;;;;;3533742;40;20549;-59
2021/08/04 02:26:39;;;;;;;7.77;7.57;;;24.00;95.30;;;;;;3526706;40;20766;-60
2021/08/04 02:29:09;;;;;;;7.53;7.33;;;24.00;95.30;;;;;;3536067;40;20455;-59
2021/08/04 02:31:36;;;;;;;7.53;7.33;;;24.00;95.30;;;;;;3526963;40;20766;-60
2021/08/04 02:34:05;;;;;;;8.50;8.20;;;24.00;95.30;;;;;;3536041;40;20462;-60
2021/08/04 02:36:32;;;;;;;8.17;7.93;;;24.00;95.30;;;;;;3535323;40;20575;-59
2021/08/04 02:39:01;;;;;;;8.13;7.93;;;24.00;95.30;;;;;;3534771;40;20461;-58
2021/08/04 02:41:30;;;;;;;7.37;7.17;;;24.00;95.30;;;;;;3535213;40;20485;-60
2021/08/04 02:43:57;;;;;;;7.47;7.27;;;24.00;95.30;;;;;;3533877;40;21006;-58
2021/08/04 02:46:29;;;;;;;7.20;7.00;;;24.00;95.30;;;;;;3534823;40;20712;-60
2021/08/04 02:48:57;;;;;;;8.10;7.90;;;24.00;95.30;;;;;;3526777;40;20763;-57
2021/08/04 02:51:26;;;;;;;8.00;7.80;;;24.00;95.30;;;;;;3535728;40;20840;-58
2021/08/04 02:53:57;;;;;;;8.00;7.80;;;24.00;95.30;;;;;;3534457;40;20623;-60
2021/08/04 02:56:24;;;;;;;7.93;7.67;;;24.00;95.30;;;;;;3534518;40;20463;-57
2021/08/04 02:58:52;;;;;;;7.67;7.47;;;24.00;95.30;;;;;;3534629;40;20684;-59
2021/08/04 03:01:20;;;;;;;7.80;7.60;;;24.00;95.30;;;;;;3534894;40;20584;-58
2021/08/04 03:03:49;;;;;;;7.73;7.53;;;24.00;95.30;;;;;;3535079;40;20451;-59
2021/08/04 03:06:18;;;;;;;8.10;7.90;;;24.00;95.30;;;;;;3534802;40;20475;-57
2021/08/04 03:08:45;;;;;;;8.00;7.70;;;24.00;95.30;;;;;;3542266;40;20599;-59
2021/08/04 03:11:12;;;;;;;8.30;8.00;;;24.00;95.30;;;;;;3536567;40;20760;-60
2021/08/04 03:13:39;;;;;;;7.90;7.70;;;24.00;95.30;;;;;;3535997;40;20503;-60
2021/08/04 03:16:07;;;;;;;7.93;7.70;;;24.00;95.30;;;;;;3534780;40;20447;-59
2021/08/04 03:18:34;;;;;;;7.40;7.20;;;24.00;95.30;;;;;;3533846;40;20466;-60
2021/08/04 03:21:03;;;;;;;7.60;7.40;;;24.00;95.30;;;;;;3536201;40;20481;-59
2021/08/04 03:23:30;;;;;;;7.90;7.70;;;24.00;95.30;;;;;;3534887;40;20582;-60
2021/08/04 03:25:58;;;;;;;8.17;7.93;;;24.00;95.30;;;;;;3534811;40;20548;-59
2021/08/04 03:28:25;;;;;;;7.60;7.40;;;24.00;95.30;;;;;;3534637;40;20619;-60
2021/08/04 03:30:52;;;;;;;7.90;7.70;;;24.00;95.30;;;;;;3534878;40;20458;-60
2021/08/04 03:33:20;;;;;;;7.80;7.60;;;24.00;95.30;;;;;;3535111;40;20737;-59
2021/08/04 03:35:47;;;;;;;7.77;7.50;;;24.00;95.30;;;;;;3534926;40;20742;-59
2021/08/04 03:38:16;;;;;;;8.00;7.80;;;24.00;95.30;;;;;;3535560;40;20473;-59
2021/08/04 03:40:43;;;;;;;7.70;7.50;;;24.00;95.30;;;;;;3534875;40;20691;-60
2021/08/04 03:43:10;;;;;;;7.63;7.43;;;24.00;95.30;;;;;;3534058;40;20842;-60
2021/08/04 03:45:38;;;;;;;7.90;7.70;;;24.00;95.30;;;;;;3532711;40;20454;-60
2021/08/04 03:48:06;;;;;;;8.70;8.40;;;24.00;95.30;;;;;;3534668;40;20760;-59
2021/08/04 03:50:34;;;;;;;8.33;8.10;;;24.00;95.30;;;;;;3535364;40;20545;-57
2021/08/04 03:53:01;;;;;;;8.57;8.37;;;24.00;95.30;;;;;;3535573;40;20451;-60
2021/08/04 03:55:30;;;;;;;8.83;8.57;;;24.00;95.30;;;;;;3534267;40;20473;-60
2021/08/04 03:57:57;;;;;;;8.57;8.37;;;24.00;95.30;;;;;;3532925;40;20904;-59
2021/08/04 04:00:25;;;;;;;9.10;8.80;;;24.00;95.30;;;;;;3532883;40;20762;-60
2021/08/04 04:02:52;;;;;;;8.93;8.63;;;23.90;95.20;;;;;;3532505;40;20490;-60
2021/08/04 04:05:20;;;;;;;9.17;8.87;;;24.00;95.30;;;;;;3533690;40;20570;-60
2021/08/04 04:07:47;;;;;;;9.40;9.10;;;24.00;95.30;;;;;;3533236;40;20694;-59
2021/08/04 04:10:14;;;;;;;9.30;9.00;;;24.00;95.30;;;;;;3532471;40;20561;-59
2021/08/04 04:12:43;;;;;;;9.70;9.40;;;23.90;95.20;;;;;;3523363;40;20742;-60
2021/08/04 04:15:11;;;;;;;9.30;9.00;;;24.00;95.30;;;;;;3531535;40;20451;-60
2021/08/04 04:17:38;;;;;;;8.90;8.60;;;24.00;95.20;;;;;;3522624;40;20552;-60
2021/08/04 04:20:07;;;;;;;9.10;8.80;;;24.00;95.30;;;;;;3531644;40;20739;-58
2021/08/04 04:22:35;;;;;;;9.60;9.30;;;24.00;95.30;;;;;;3533084;40;20674;-60
2021/08/04 04:25:02;;;;;;;9.50;9.20;;;23.90;95.20;;;;;;3530915;40;20754;-59
2021/08/04 04:27:30;;;;;;;9.67;9.37;;;24.00;95.30;;;;;;3532036;40;20462;-60
2021/08/04 04:29:59;;;;;;;9.57;9.27;;;23.90;95.20;;;;;;3521888;40;20466;-59
2021/08/04 04:32:26;;;;;;;9.50;9.20;;;23.90;95.20;;;;;;3530486;40;20455;-60
2021/08/04 04:34:54;;;;;;;9.53;9.23;;;24.00;95.30;;;;;;3530959;40;20756;-60
2021/08/04 04:37:21;;;;;;;9.27;8.97;;;23.90;95.20;;;;;;3530302;40;20561;-60
2021/08/04 04:39:48;;;;;;;9.50;9.20;;;24.00;95.30;;;;;;3531932;40;20462;-59
2021/08/04 04:42:16;;;;;;;9.07;8.77;;;23.90;95.20;;;;;;3530915;40;20478;-60
2021/08/04 04:44:43;;;;;;;9.23;9.03;;;23.90;95.20;;;;;;3531099;40;20507;-60
2021/08/04 04:47:12;;;;;;;9.43;9.13;;;24.00;95.30;;;;;;3531060;40;20808;-59
2021/08/04 04:49:39;;;;;;;9.50;9.20;;;23.90;95.20;;;;;;3513848;40;20474;-59
2021/08/04 04:52:07;;;;;;;9.70;9.40;;;24.00;95.30;;;;;;3531321;40;20694;-60
2021/08/04 04:54:35;;;;;;;9.90;9.60;;;23.90;95.20;;;;;;3531249;40;20850;-59
2021/08/04 04:57:02;;;;;;;9.10;8.90;;;23.90;95.20;;;;;;3530571;40;20715;-59
2021/08/04 04:59:29;;;;;;;9.57;9.27;;;23.90;95.20;;;;;;3531020;40;20624;-59
2021/08/04 05:01:57;;;;;;;9.70;9.40;;;23.90;95.20;;;;;;3529993;40;20884;-60
2021/08/04 05:04:25;;;;;;;9.40;9.10;;;23.90;95.20;;;;;;3529748;40;20569;-59
2021/08/04 05:06:53;;;;;;;9.13;8.87;;;23.90;95.20;;;;;;3526339;40;20482;-60
2021/08/04 05:09:20;;;;;;;9.20;8.93;;;24.00;95.30;;;;;;3536599;40;20552;-60
2021/08/04 05:11:47;;;;;;;9.97;9.67;;;23.90;95.20;;;;;;3538972;40;20472;-59
2021/08/04 05:14:15;;;;;;;10.00;9.70;;;23.90;95.20;;;;;;3539651;40;20547;-59
2021/08/04 05:16:42;;;;;;;9.60;9.30;;;24.00;95.30;;;;;;3535360;40;20672;-59
2021/08/04 05:19:09;;;;;;;9.30;9.00;;;23.90;95.20;;;;;;3537539;40;20676;-60
2021/08/04 05:21:38;;;;;;;9.50;9.20;;;23.90;95.20;;;;;;3536981;40;20665;-60
2021/08/04 05:24:06;;;;;;;8.60;8.40;;;23.90;95.20;;;;;;3537313;40;20461;-59
2021/08/04 05:26:33;;;;;;;9.20;9.00;;;23.90;95.20;;;;;;3537105;40;20452;-59
2021/08/04 05:29:01;;;;;;;9.73;9.43;;;23.90;95.20;;;;;;3536416;40;21223;-59
2021/08/04 05:31:28;;;;;;;9.63;9.33;;;23.90;95.20;;;;;;3527838;40;20699;-60
2021/08/04 05:33:56;;;;;;;9.57;9.27;;;24.00;95.30;;;;;;3535315;40;20513;-60
2021/08/04 05:36:23;;;;;;;9.10;8.90;;;23.90;95.20;;;;;;3534881;40;20733;-60
2021/08/04 05:38:53;;;;;;;9.43;9.13;;;23.90;95.20;;;;;;3533735;40;20843;-60
2021/08/04 05:41:21;;;;;;;9.60;9.30;;;23.90;95.20;;;;;;3535000;40;20565;-59
2021/08/04 05:43:48;;;;;;;9.50;9.20;;;23.90;95.20;;;;;;3535260;40;20880;-60
2021/08/04 05:46:15;;;;;;;9.40;9.10;;;23.90;95.20;;;;;;3533331;40;20798;-59
2021/08/04 05:48:42;;;;;;;8.80;8.60;;;23.90;95.20;;;;;;3531085;40;20484;-60
2021/08/04 05:51:10;;;;;;;10.87;10.57;;;23.90;95.20;;;;;;3531999;40;20573;-60
2021/08/04 05:53:37;;;;;;;10.70;10.40;;;23.90;95.20;;;;;;3532698;40;20469;-59
2021/08/04 05:56:06;;;;;;;10.30;10.00;;;23.90;95.20;;;;;;3530719;40;20547;-60
2021/08/04 05:58:34;;;;;;;9.90;9.60;;;24.00;95.30;;;;;;3528930;40;20496;-60
2021/08/04 06:01:01;;;;;;;10.60;10.30;;;23.90;95.20;;;;;;3527390;40;20645;-59
2021/08/04 06:03:28;;;;;;;10.40;10.10;;;23.90;95.50;;;;;;3529455;40;20601;-59
2021/08/04 06:05:56;;;;;;;10.10;9.80;;;23.90;95.20;;;;;;3529554;40;20809;-59
2021/08/04 06:08:23;;;;;;;9.70;9.40;;;23.90;95.20;;;;;;3528839;40;20669;-59
2021/08/04 06:10:50;;;;;;;10.10;9.80;;;23.90;95.20;;;;;;3527346;40;20457;-59
2021/08/04 06:13:19;;;;;;;9.97;9.67;;;23.90;95.20;;;;;;3517453;40;20920;-59
2021/08/04 06:15:47;;;;;;;9.90;9.60;;;24.00;95.30;;;;;;3527792;40;20826;-60
2021/08/04 06:18:14;;;;;;;9.70;9.40;;;23.90;95.20;;;;;;3528452;40;20792;-60
2021/08/04 06:20:41;;;;;;;9.70;9.40;;;23.90;95.20;;;;;;3526363;40;20454;-59
2021/08/04 06:23:08;;;;;;;9.40;9.10;;;24.00;95.20;;;;;;3524379;40;20572;-60
2021/08/04 06:25:36;;;;;;;11.00;10.50;;;23.90;95.20;;;;;;3526945;40;21388;-59
2021/08/04 06:28:03;;;;;;;11.17;10.57;;;23.80;93.60;;;;;;3531181;40;20458;-60
2021/08/04 06:30:32;;;;;;;11.40;10.73;;;23.50;92.90;;;;;;3529284;40;20458;-59
2021/08/04 06:32:59;;;;;;;11.33;10.83;;;23.20;93.50;;;;;;3531552;40;20462;-61
2021/08/04 06:35:27;;;;;;;11.50;10.70;;;22.90;93.60;;;;;;3528988;40;20474;-60
2021/08/04 06:37:55;;;;;;;12.10;11.60;;;22.80;94.00;;;;;;3530688;40;20485;-59
2021/08/04 06:40:22;;;;;;;11.03;10.60;;;22.70;93.80;;;;;;3529810;40;20666;-58
2021/08/04 06:42:49;;;;;;;10.60;10.20;;;22.60;94.10;;;;;;3529082;40;21295;-60
2021/08/04 06:45:16;;;;;;;11.53;10.93;;;22.40;94.20;;;;;;3528906;40;20477;-60
2021/08/04 06:47:45;;;;;;;11.10;10.60;;;22.30;93.80;;;;;;3531498;40;20549;-59
2021/08/04 06:50:13;;;;;;;10.90;10.40;;;22.20;93.80;;;;;;3532305;40;20521;-59
2021/08/04 06:52:40;;;;;;;10.60;10.20;;;22.20;94.20;;;;;;3529437;40;20548;-60
2021/08/04 06:55:08;;;;;;;11.30;10.80;;;22.20;94.10;;;;;;3529829;40;20481;-60
2021/08/04 06:57:35;;;;;;;10.87;10.37;;;22.10;93.70;;;;;;3527139;40;20488;-59
2021/08/04 07:00:04;;;;;;;11.37;10.67;;;22.20;93.40;;;;;;3528505;40;20539;-59
2021/08/04 07:02:31;;;;;;;11.30;10.70;;;22.20;93.50;;;;;;3528936;40;20580;-59
2021/08/04 07:05:00;;;;;;;10.90;10.50;;;22.30;93.60;;;;;;3531421;40;20493;-60
2021/08/04 07:07:27;;;;;;;10.10;9.70;;;22.50;93.80;;;;;;3529413;40;20477;-59
2021/08/04 07:09:54;;;;;;;11.07;10.67;;;22.70;93.90;;;;;;3528966;40;20784;-59
2021/08/04 07:12:22;;;;;;;11.17;10.63;;;22.80;93.90;;;;;;3527821;40;20446;-58
2021/08/04 07:14:51;;;;;;;10.80;10.43;;;23.00;94.00;;;;;;3528799;40;20472;-59
2021/08/04 07:17:18;;;;;;;10.57;10.17;;;23.10;94.00;;;;;;3528625;40;20466;-59
2021/08/04 07:19:46;;;;;;;11.30;10.60;;;23.20;94.00;;;;;;3529317;40;20454;-58
2021/08/04 07:22:14;;;;;;;10.93;10.43;;;23.20;94.00;;;;;;3529729;40;20488;-60
2021/08/04 07:24:42;;;;;;;10.00;9.60;;;23.30;94.00;;;;;;3526587;40;20457;-59
2021/08/04 07:27:09;;;;;;;10.77;10.33;;;23.30;94.00;;;;;;3527603;40;20446;-58
2021/08/04 07:29:37;;;;;;;10.80;10.30;;;23.40;94.00;;;;;;3528331;40;20486;-59
2021/08/04 07:32:05;;;;;;;11.23;10.83;;;23.40;94.00;;;;;;3528616;40;20528;-59
2021/08/04 07:34:32;;;;;;;10.57;10.17;;;23.50;94.00;;;;;;3528581;40;20481;-59
2021/08/04 07:36:59;;;;;;;11.23;10.73;;;23.50;94.00;;;;;;3528126;40;20493;-60
2021/08/04 07:39:28;;;;;;;10.33;9.93;;;23.50;94.00;;;;;;3528250;40;20473;-58
2021/08/04 07:41:55;;;;;;;10.40;9.90;;;23.60;94.00;;;;;;3526265;40;20721;-59
2021/08/04 07:44:22;;;;;;;10.37;9.97;;;23.60;94.00;;;;;;3527141;40;20499;-58
2021/08/04 07:46:50;;;;;;;10.60;10.20;;;23.60;94.00;;;;;;3527251;40;20567;-60
2021/08/04 07:49:17;;;;;;;11.10;10.40;;;23.60;94.00;;;;;;3527248;40;20756;-57
2021/08/04 07:51:45;;;;;;;11.60;11.10;;;23.60;94.00;;;;;;3527755;40;20891;-60
2021/08/04 07:54:12;;;;;;;12.00;11.40;;;23.70;94.00;;;;;;3528512;40;20454;-59
2021/08/04 07:56:41;;;;;;;11.00;10.47;;;23.70;94.00;;;;;;3524598;40;20462;-60
2021/08/04 07:59:09;;;;;;;11.20;10.70;;;23.70;94.00;;;;;;3527302;40;20540;-60
2021/08/04 08:01:36;;;;;;;11.73;10.93;;;23.70;94.00;;;;;;3525594;40;20853;-59
2021/08/04 08:04:04;;;;;;;11.83;11.30;;;23.80;94.10;;;;;;3526992;40;20462;-60
2021/08/04 08:06:31;;;;;;;11.70;11.10;;;23.80;94.10;;;;;;3527963;40;20541;-59
2021/08/04 08:08:59;;;;;;;12.70;12.10;;;23.80;94.10;;;;;;3527209;40;20576;-60
2021/08/04 08:11:26;;;;;;;11.43;10.87;;;23.80;94.10;;;;;;3528656;40;20509;-61
2021/08/04 08:13:55;;;;;;;13.10;12.20;;;23.80;94.10;;;;;;3528328;40;20524;-58
2021/08/04 08:16:22;;;;;;;11.87;11.27;;;23.80;94.10;;;;;;3528219;40;20513;-59
2021/08/04 08:18:49;;;;;;;11.73;11.13;;;23.80;94.10;;;;;;3526954;40;20560;-59
2021/08/04 08:21:17;;;;;;;12.47;11.43;;;23.80;94.10;;;;;;3526947;40;20490;-57
2021/08/04 08:23:44;;;;;;;11.80;11.20;;;23.80;94.10;;;;;;3529171;40;20576;-58
2021/08/04 08:26:12;;;;;;;11.80;11.20;;;23.80;94.10;;;;;;3529336;40;20456;-57
2021/08/04 08:28:39;;;;;;;11.67;11.00;;;23.80;94.10;;;;;;3528147;40;20450;-58
2021/08/04 08:31:07;;;;;;;11.70;11.10;;;23.90;94.10;;;;;;3529124;40;20466;-57
2021/08/04 08:33:35;;;;;;;12.27;11.67;;;23.90;94.20;;;;;;3526883;40;20516;-59
2021/08/04 08:36:03;;;;;;;11.97;11.20;;;23.90;94.20;;;;;;3529039;40;21216;-59
2021/08/04 08:38:30;;;;;;;10.00;9.60;;;23.90;94.20;;;;;;3526608;40;20544;-58
2021/08/04 08:40:58;;;;;;;12.80;10.60;;;23.90;94.30;;;;;;3527973;40;20925;-58
2021/08/04 08:43:25;;;;;;;11.07;10.67;;;23.90;94.30;;;;;;3527737;40;20571;-57
2021/08/04 08:45:54;;;;;;;12.10;11.53;;;23.90;94.30;;;;;;3525851;40;20474;-58
2021/08/04 08:48:23;;;;;;;11.50;10.80;;;23.90;94.30;;;;;;3525966;40;20469;-59
2021/08/04 08:50:51;;;;;;;11.10;10.60;;;23.90;94.40;;;;;;3527172;40;20477;-58
2021/08/04 08:53:21;;;;;;;12.27;11.63;;;23.90;94.40;;;;;;3529508;40;20517;-58
2021/08/04 08:55:48;;;;;;;12.37;11.73;;;23.90;94.40;;;;;;3527879;40;20465;-57
2021/08/04 08:58:16;;;;;;;11.73;11.20;;;23.90;94.40;;;;;;3527919;40;20556;-58
2021/08/04 09:00:44;;;;;;;11.57;11.00;;;23.90;94.40;;;;;;3527365;40;20458;-59
2021/08/04 09:03:11;;;;;;;11.80;11.40;;;23.90;94.50;;;;;;3525182;40;20916;-59
2021/08/04 09:05:51;;;;;;;11.93;11.37;;;23.90;94.50;;;;;;3524958;40;20726;-57
2021/08/04 09:08:23;;;;;;;12.40;11.80;;;23.90;94.50;;;;;;3524905;40;20489;-57
2021/08/04 09:10:51;;;;;;;12.40;11.90;;;23.90;94.50;;;;;;3527251;40;20494;-58
2021/08/04 09:13:20;;;;;;;12.13;11.53;;;23.90;94.60;;;;;;3526306;40;20458;-59
2021/08/04 09:15:47;;;;;;;12.63;11.97;;;23.90;94.60;;;;;;3524859;40;20474;-58
2021/08/04 09:18:17;;;;;;;14.00;13.10;;;23.90;94.60;;;;;;3526775;40;20935;-57
2021/08/04 09:20:51;;;;;;;12.50;12.00;;;23.90;94.70;;;;;;3524591;40;20480;-57
2021/08/04 09:23:22;;;;;;;12.30;11.60;;;23.90;94.70;;;;;;3524719;40;20473;-58
2021/08/04 09:26:03;;;;;;;12.97;11.90;;;23.90;94.70;;;;;;3526463;40;20552;-57
2021/08/04 09:28:31;;;;;;;12.20;11.40;;;23.90;94.70;;;;;;3526637;40;20454;-57
2021/08/04 09:31:03;;;;;;;11.70;11.20;;;23.90;94.70;;;;;;3527829;40;20456;-58
2021/08/04 09:33:37;;;;;;;11.50;11.00;;;23.90;94.70;;;;;;3527278;40;20450;-58
2021/08/04 09:36:05;;;;;;;12.20;11.60;;;23.90;94.70;;;;;;3528611;40;20472;-59
2021/08/04 09:38:33;;;;;;;12.10;11.50;;;23.90;94.90;;;;;;3528959;40;20933;-58
2021/08/04 09:41:12;;;;;;;11.30;10.70;;;23.90;94.80;;;;;;3525763;40;20461;-59
2021/08/04 09:43:40;;;;;;;12.53;11.43;;;23.90;94.80;;;;;;3524360;40;20477;-58
2021/08/04 09:46:20;;;;;;;11.77;10.90;;;23.90;94.80;;;;;;3522556;40;20748;-59
2021/08/04 09:48:48;;;;;;;11.53;10.87;;;23.90;94.80;;;;;;3520405;40;20739;-57
2021/08/04 09:51:18;;;;;;;12.20;11.37;;;23.90;94.80;;;;;;3523066;40;20874;-58
2021/08/04 09:53:49;;;;;;;11.33;10.83;;;23.90;94.80;;;;;;3513210;40;20730;-59
2021/08/04 09:56:18;;;;;;;11.07;10.67;;;23.90;94.80;;;;;;3525170;40;20737;-59
2021/08/04 09:58:49;;;;;;;12.00;11.40;;;23.90;94.80;;;;;;3524812;40;20853;-56
2021/08/04 10:01:20;;;;;;;11.50;10.90;;;23.90;94.80;;;;;;3524680;40;20646;-58
2021/08/04 10:04:02;;;;;;;12.40;11.90;;;23.90;94.90;;;;;;3523142;40;20493;-59
2021/08/04 10:06:30;;;;;;;12.20;11.40;;;23.90;95.20;;;;;;3525557;40;20490;-58
2021/08/04 10:09:00;;;;;;;12.40;11.80;;;23.90;94.90;;;;;;3523858;40;20506;-56
2021/08/04 10:11:28;;;;;;;12.23;11.40;;;23.90;94.90;;;;;;3525657;40;20442;-57
2021/08/04 10:13:58;;;;;;;11.23;10.63;;;23.90;94.90;;;;;;3528042;40;20960;-58
2021/08/04 10:16:29;;;;;;;10.67;10.10;;;23.90;94.90;;;;;;3527279;40;20528;-59
2021/08/04 10:18:57;;;;;;;10.70;10.30;;;23.90;94.90;;;;;;3525638;40;21355;-59
2021/08/04 10:21:25;;;;;;;10.80;10.27;;;23.90;94.90;;;;;;3527144;40;20540;-58
2021/08/04 10:23:53;;;;;;;11.20;10.60;;;23.90;95.00;;;;;;3528359;40;20466;-58
2021/08/04 10:26:22;;;;;;;10.67;10.17;;;23.90;95.00;;;;;;3526282;40;20465;-58
2021/08/04 10:28:54;;;;;;;10.00;9.50;;;23.90;95.00;;;;;;3527778;40;20552;-59
2021/08/04 10:31:22;;;;;;;10.50;10.10;;;23.90;95.00;;;;;;3527638;40;20733;-58
2021/08/04 10:33:50;;;;;;;10.07;9.57;;;23.90;95.00;;;;;;3530302;40;20722;-58
2021/08/04 10:36:20;;;;;;;10.90;10.30;;;23.90;95.00;;;;;;3530109;40;20462;-58
2021/08/04 10:38:50;;;;;;;10.70;10.00;;;23.90;95.00;;;;;;3528621;40;20453;-59
2021/08/04 10:41:19;;;;;;;10.67;10.07;;;23.90;95.00;;;;;;3527420;40;20540;-58
2021/08/04 10:43:50;;;;;;;10.97;10.47;;;23.90;95.00;;;;;;3526486;40;21074;-59
2021/08/04 10:46:43;;;;;;;11.00;10.50;;;23.90;95.00;;;;;;3530779;40;20676;-58
2021/08/04 10:49:19;;;;;;;11.40;10.90;;;24.00;95.10;;;;;;3530803;40;20904;-59
2021/08/04 10:52:09;;;;;;;10.87;10.37;;;24.00;95.10;;;;;;3524750;40;20475;-60
2021/08/04 10:55:03;;;;;;;10.43;10.03;;;24.00;95.10;;;;;;3520432;40;20486;-59
2021/08/04 10:57:35;;;;;;;11.10;10.50;;;24.00;95.10;;;;;;3521379;40;20461;-59
2021/08/04 11:00:24;;;;;;;10.40;9.80;;;24.00;95.10;;;;;;3519937;40;20463;-60
2021/08/04 11:02:56;;;;;;;11.57;11.07;;;24.00;95.10;;;;;;3519856;40;20520;-59
2021/08/04 11:05:25;;;;;;;10.83;10.30;;;24.00;95.10;;;;;;3520304;40;20522;-60
2021/08/04 11:08:26;;;;;;;11.40;10.90;;;24.00;95.10;;;;;;3510013;40;20447;-61
2021/08/04 11:10:55;;;;;;;11.17;10.67;;;24.00;95.20;;;;;;3508348;40;20466;-60
2021/08/04 11:13:54;;;;;;;11.10;10.60;;;24.00;95.10;;;;;;3508533;40;20471;-60
2021/08/04 11:16:28;;;;;;;10.90;10.50;;;24.00;95.20;;;;;;3509906;40;20475;-59
2021/08/04 11:19:10;;;;;;;11.10;10.60;;;24.00;95.10;;;;;;3508603;40;20458;-60
2021/08/04 11:21:39;;;;;;;11.40;10.70;;;24.00;95.20;;;;;;3506494;40;20938;-59
2021/08/04 11:24:08;;;;;;;11.93;11.33;;;24.00;95.10;;;;;;3505627;40;20478;-59
2021/08/04 11:26:37;;;;;;;12.37;11.87;;;24.00;95.20;;;;;;3506948;40;20469;-59
2021/08/04 11:29:05;;;;;;;12.20;11.70;;;24.00;95.20;;;;;;3499579;40;20567;-60
2021/08/04 11:31:34;;;;;;;12.50;12.00;;;24.00;95.20;;;;;;3499816;40;20488;-59
2021/08/04 11:34:27;;;;;;;12.77;12.03;;;24.00;95.20;;;;;;3495682;40;20464;-59
2021/08/04 11:37:00;;;;;;;12.70;12.13;;;24.00;95.20;;;;;;3511287;40;20979;-60
2021/08/04 11:39:29;;;;;;;11.90;11.20;;;24.00;95.20;;;;;;3519663;40;20495;-60
2021/08/04 11:41:59;;;;;;;12.90;12.30;;;24.00;95.20;;;;;;3528901;40;20494;-60
2021/08/04 11:44:29;;;;;;;13.63;12.40;;;24.00;95.20;;;;;;3539521;40;20719;-61
2021/08/04 11:47:02;;;;;;;14.17;13.47;;;24.00;95.20;;;;;;3546780;40;20505;-62
2021/08/04 11:49:33;;;;;;;11.60;11.00;;;24.00;95.20;;;;;;3544799;40;20466;-62
2021/08/04 11:52:06;;;;;;;12.73;12.17;;;24.00;95.20;;;;;;3541663;40;20472;-61
2021/08/04 11:54:41;;;;;;;12.97;12.30;;;24.00;95.20;;;;;;3540209;40;20875;-61
2021/08/04 11:57:12;;;;;;;12.17;11.63;;;24.00;95.20;;;;;;3534493;40;20473;-62
2021/08/04 11:59:52;;;;;;;12.07;11.57;;;24.00;95.20;;;;;;3536749;40;20568;-63
2021/08/04 12:02:22;;;;;;;10.73;10.23;;;24.00;95.30;;;;;;3541426;40;20474;-61
2021/08/04 12:04:52;;;;;;;11.73;11.13;;;24.00;93.80;;;;;;3546856;40;20489;-61
2021/08/04 12:07:26;;;;;;;11.03;10.63;;;23.90;92.10;;;;;;3538217;40;20548;-61
2021/08/04 12:10:01;;;;;;;11.30;10.90;;;23.80;91.40;;;;;;3548423;40;20464;-61
2021/08/04 12:12:31;;;;;;;9.57;9.17;;;23.60;90.00;;;;;;3552423;40;20469;-61
2021/08/04 12:14:59;;;;;;;11.37;10.97;;;23.50;90.10;;;;;;3553481;40;20502;-61
2021/08/04 12:17:59;;;;;;;9.90;9.50;;;23.50;90.20;;;;;;3553847;40;20473;-61
2021/08/04 12:20:28;;;;;;;10.03;9.63;;;23.40;90.30;;;;;;3553250;40;20529;-61
2021/08/04 12:23:00;;;;;;;9.70;9.30;;;23.40;89.90;;;;;;3552639;40;20465;-61
2021/08/04 12:25:28;;;;;;;11.00;10.60;;;23.50;90.40;;;;;;3554510;40;20481;-63
2021/08/04 12:27:58;;;;;;;10.67;10.27;;;23.50;90.80;;;;;;3552305;40;20453;-63
2021/08/04 12:30:29;;;;;;;10.13;9.73;;;23.60;91.00;;;;;;3553898;40;20510;-63
2021/08/04 12:33:03;;;;;;;9.77;9.37;;;23.60;90.80;;;;;;3549451;40;20982;-63
2021/08/04 12:35:41;;;;;;;9.87;9.57;;;23.60;90.60;;;;;;3538985;40;20469;-63
2021/08/04 12:38:13;;;;;;;9.83;9.43;;;23.60;90.60;;;;;;3539869;40;20469;-62
2021/08/04 12:40:41;;;;;;;12.23;11.60;;;23.60;90.50;;;;;;3547508;40;20457;-63
2021/08/04 12:43:13;;;;;;;11.10;10.70;;;23.60;90.10;;;;;;3549693;40;20454;-62
2021/08/04 12:45:49;;;;;;;10.70;10.30;;;23.50;90.10;;;;;;3553532;40;20537;-61
2021/08/04 12:48:20;;;;;;;10.30;9.90;;;23.50;90.10;;;;;;3553513;40;20477;-63
2021/08/04 12:50:54;;;;;;;10.90;10.40;;;23.50;90.00;;;;;;3552913;40;20478;-62